createdAt,value
2017-09-13T00:00:24.927Z,86.00
2017-09-13T00:02:53.957Z,86.60
2017-09-13T00:05:22.198Z,86.60
2017-09-13T00:07:51.256Z,86.80
2017-09-13T00:10:19.491Z,86.80
2017-09-13T00:12:48.511Z,87.30
2017-09-13T00:15:16.764Z,87.30
2017-09-13T00:17:45.779Z,87.20
2017-09-13T00:20:14.041Z,87.20
2017-09-13T00:22:43.064Z,87.40
2017-09-13T00:25:11.321Z,87.40
2017-09-13T00:27:40.363Z,87.60
2017-09-13T00:30:08.628Z,87.60
2017-09-13T00:32:36.875Z,87.90
2017-09-13T00:35:05.901Z,88.10
2017-09-13T00:37:34.169Z,88.10
2017-09-13T00:40:03.199Z,88.30
2017-09-13T00:42:31.449Z,88.20
2017-09-13T00:45:00.581Z,88.20
2017-09-13T00:47:28.832Z,88.10
2017-09-13T00:49:57.088Z,88.10
2017-09-13T00:52:25.335Z,87.90
2017-09-13T00:54:53.644Z,87.60
2017-09-13T00:57:21.886Z,87.90
2017-09-13T00:59:50.162Z,87.70
2017-09-13T01:02:18.416Z,87.80
2017-09-13T01:04:47.438Z,87.90
2017-09-13T01:07:15.682Z,87.90
2017-09-13T01:09:44.709Z,88.40
2017-09-13T01:12:12.955Z,89.10
2017-09-13T01:14:41.226Z,88.60
2017-09-13T01:17:09.468Z,88.60
2017-09-13T01:19:37.717Z,88.70
2017-09-13T01:22:05.984Z,88.90
2017-09-13T01:24:34.995Z,88.90
2017-09-13T01:27:03.257Z,88.90
2017-09-13T01:29:32.264Z,88.60
2017-09-13T01:32:01.293Z,88.50
2017-09-13T01:34:29.535Z,88.50
2017-09-13T01:36:58.572Z,88.30
2017-09-13T01:39:26.816Z,88.30
2017-09-13T01:41:55.845Z,88.40
2017-09-13T01:44:24.091Z,88.40
2017-09-13T01:46:53.130Z,88.80
2017-09-13T01:49:21.390Z,88.80
2017-09-13T01:51:49.657Z,88.60
2017-09-13T01:54:18.673Z,88.50
2017-09-13T01:56:46.935Z,88.50
2017-09-13T01:59:15.953Z,88.50
2017-09-13T02:01:44.212Z,89.20
2017-09-13T02:04:13.228Z,88.10
2017-09-13T02:06:41.494Z,88.10
2017-09-13T02:09:10.504Z,87.80
2017-09-13T02:11:38.767Z,87.80
2017-09-13T02:14:07.778Z,87.90
2017-09-13T02:16:36.046Z,87.90
2017-09-13T02:19:05.847Z,88.00
2017-09-13T02:21:34.196Z,87.90
2017-09-13T02:24:02.464Z,87.80
2017-09-13T02:26:30.744Z,87.60
2017-09-13T02:28:58.978Z,87.40
2017-09-13T02:31:28.013Z,87.50
2017-09-13T02:33:56.257Z,87.40
2017-09-13T02:36:25.267Z,87.60
2017-09-13T02:38:53.553Z,87.50
2017-09-13T02:41:21.798Z,87.60
2017-09-13T02:43:50.059Z,87.80
2017-09-13T02:46:18.303Z,88.00
2017-09-13T02:48:46.571Z,87.90
2017-09-13T02:51:14.821Z,87.80
2017-09-13T02:53:43.095Z,87.80
2017-09-13T02:56:11.340Z,88.10
2017-09-13T02:58:39.607Z,88.10
2017-09-13T03:01:07.850Z,88.30
2017-09-13T03:03:36.113Z,88.10
2017-09-13T03:06:04.370Z,88.90
2017-09-13T03:08:32.633Z,88.00
2017-09-13T03:11:00.882Z,87.70
2017-09-13T03:13:29.907Z,88.00
2017-09-13T03:15:58.152Z,87.20
2017-09-13T03:18:26.420Z,87.00
2017-09-13T03:20:54.684Z,86.50
2017-09-13T03:23:23.872Z,86.10
2017-09-13T03:25:52.156Z,86.10
2017-09-13T03:28:20.420Z,85.80
2017-09-13T03:30:48.667Z,85.60
2017-09-13T03:33:17.695Z,85.20
2017-09-13T03:35:45.945Z,85.20
2017-09-13T03:38:14.212Z,85.20
2017-09-13T03:40:42.472Z,84.60
2017-09-13T03:43:10.734Z,84.40
2017-09-13T03:45:38.980Z,84.10
2017-09-13T03:48:07.241Z,83.90
2017-09-13T03:50:35.498Z,83.50
2017-09-13T03:53:03.756Z,83.10
2017-09-13T03:55:32.013Z,83.30
2017-09-13T03:58:01.032Z,82.40
2017-09-13T04:00:29.298Z,82.40
2017-09-13T04:02:57.548Z,82.10
2017-09-13T04:05:26.575Z,81.50
2017-09-13T04:07:54.825Z,81.50
2017-09-13T04:10:23.088Z,81.60
2017-09-13T04:12:51.347Z,81.00
2017-09-13T04:15:19.610Z,81.10
2017-09-13T04:17:47.861Z,81.00
2017-09-13T04:20:16.882Z,80.50
2017-09-13T04:22:45.135Z,80.40
2017-09-13T04:25:14.195Z,81.10
2017-09-13T04:27:42.443Z,80.90
2017-09-13T04:30:10.706Z,81.30
2017-09-13T04:32:39.711Z,81.20
2017-09-13T04:35:07.979Z,81.30
2017-09-13T04:37:37.058Z,85.40
2017-09-13T04:40:05.340Z,85.40
2017-09-13T04:42:35.129Z,89.00
2017-09-13T04:45:06.477Z,89.00
2017-09-13T04:47:34.731Z,89.70
2017-09-13T04:50:03.001Z,90.10
2017-09-13T04:52:31.260Z,90.30
2017-09-13T04:55:00.299Z,91.00
2017-09-13T04:57:28.552Z,91.00
2017-09-13T04:59:57.555Z,91.60
2017-09-13T05:02:26.583Z,92.10
2017-09-13T05:04:54.840Z,92.10
2017-09-13T05:07:23.102Z,92.30
2017-09-13T05:09:52.139Z,92.90
2017-09-13T05:12:20.426Z,92.90
2017-09-13T05:14:48.671Z,93.40
2017-09-13T05:17:16.979Z,93.80
2017-09-13T05:19:45.227Z,94.00
2017-09-13T05:22:14.295Z,94.10
2017-09-13T05:24:42.873Z,94.10
2017-09-13T05:27:11.131Z,94.50
2017-09-13T05:29:39.395Z,94.90
2017-09-13T05:32:07.704Z,94.90
2017-09-13T05:34:36.737Z,95.10
2017-09-13T05:37:06.678Z,95.10
2017-09-13T05:39:35.774Z,95.30
2017-09-13T05:42:04.792Z,95.50
2017-09-13T05:44:33.054Z,95.50
2017-09-13T05:47:02.637Z,95.40
2017-09-13T05:49:30.931Z,95.40
2017-09-13T05:51:59.959Z,95.60
2017-09-13T05:54:28.210Z,95.50
2017-09-13T05:56:57.236Z,96.00
2017-09-13T05:59:25.536Z,96.00
2017-09-13T06:01:53.799Z,95.60
2017-09-13T06:04:22.052Z,95.80
2017-09-13T06:06:51.100Z,95.50
2017-09-13T06:09:20.253Z,95.50
2017-09-13T06:11:49.266Z,95.90
2017-09-13T06:14:18.403Z,95.90
2017-09-13T06:16:46.677Z,95.90
2017-09-13T06:19:15.486Z,95.60
2017-09-13T06:21:43.741Z,96.00
2017-09-13T06:24:12.002Z,96.20
2017-09-13T06:26:40.250Z,96.30
2017-09-13T06:29:08.527Z,96.20
2017-09-13T06:31:36.776Z,96.30
2017-09-13T06:34:05.030Z,96.30
2017-09-13T06:36:33.286Z,96.50
2017-09-13T06:39:02.309Z,96.60
2017-09-13T06:41:30.555Z,96.60
2017-09-13T06:43:58.976Z,97.00
2017-09-13T06:46:27.223Z,97.00
2017-09-13T06:48:55.491Z,97.10
2017-09-13T06:51:23.727Z,97.20
2017-09-13T06:53:51.996Z,97.30
2017-09-13T06:56:21.056Z,97.70
2017-09-13T06:58:49.316Z,97.70
2017-09-13T07:01:18.572Z,98.00
2017-09-13T07:03:47.603Z,98.00
2017-09-13T07:06:15.837Z,98.00
2017-09-13T07:08:44.105Z,97.90
2017-09-13T07:11:12.353Z,97.60
2017-09-13T07:13:40.624Z,97.70
2017-09-13T07:16:08.923Z,97.80
2017-09-13T07:18:37.187Z,98.10
2017-09-13T07:21:05.431Z,97.90
2017-09-13T07:23:34.581Z,98.40
2017-09-13T07:26:02.830Z,98.20
2017-09-13T07:28:31.838Z,98.50
2017-09-13T07:31:00.143Z,98.50
2017-09-13T07:33:28.392Z,98.40
2017-09-13T07:35:56.655Z,98.30
2017-09-13T07:38:25.667Z,98.40
2017-09-13T07:40:54.718Z,99.40
2017-09-13T07:43:22.946Z,99.10
2017-09-13T07:45:51.302Z,98.80
2017-09-13T07:48:19.552Z,98.90
2017-09-13T07:50:47.810Z,99.00
2017-09-13T07:53:16.064Z,99.10
2017-09-13T07:55:44.323Z,99.10
2017-09-13T07:58:12.984Z,99.20
2017-09-13T08:00:41.248Z,99.30
2017-09-13T08:03:09.489Z,99.30
2017-09-13T08:05:38.520Z,99.50
2017-09-13T08:08:06.772Z,99.50
2017-09-13T08:10:35.839Z,99.80
2017-09-13T08:13:04.094Z,99.80
2017-09-13T08:15:33.108Z,99.90
2017-09-13T08:18:01.363Z,99.90
2017-09-13T08:20:29.628Z,99.90
2017-09-13T08:22:59.456Z,99.90
2017-09-13T08:25:27.714Z,99.90
2017-09-13T08:27:56.122Z,99.90
2017-09-13T08:30:24.399Z,99.90
2017-09-13T08:32:52.642Z,99.90
2017-09-13T08:35:20.930Z,99.90
2017-09-13T08:37:49.944Z,99.90
2017-09-13T08:40:18.968Z,99.90
2017-09-13T08:42:47.259Z,99.90
2017-09-13T08:45:15.508Z,99.90
2017-09-13T08:47:44.554Z,99.90
2017-09-13T08:50:12.805Z,99.90
2017-09-13T08:52:41.068Z,99.90
2017-09-13T08:55:10.102Z,99.90
2017-09-13T08:57:38.426Z,99.90
2017-09-13T09:00:06.662Z,99.90
2017-09-13T09:02:34.919Z,99.90
2017-09-13T09:05:03.189Z,99.90
2017-09-13T09:07:32.241Z,99.90
2017-09-13T09:10:00.492Z,99.90
2017-09-13T09:12:28.751Z,99.90
2017-09-13T09:14:57.840Z,99.90
2017-09-13T09:17:26.104Z,99.90
2017-09-13T09:19:54.350Z,99.90
2017-09-13T09:22:22.619Z,99.90
2017-09-13T09:24:50.872Z,99.90
2017-09-13T09:29:53.457Z,99.90
2017-09-13T09:32:22.471Z,99.90
2017-09-13T09:34:50.700Z,99.90
2017-09-13T09:37:18.972Z,99.90
2017-09-13T09:39:47.202Z,99.90
2017-09-13T09:42:15.446Z,99.90
2017-09-13T09:44:44.448Z,99.90
2017-09-13T09:47:12.696Z,99.90
2017-09-13T09:49:40.938Z,99.90
2017-09-13T09:52:09.174Z,99.90
2017-09-13T09:54:38.177Z,99.90
2017-09-13T09:57:06.404Z,99.90
2017-09-13T09:59:34.659Z,99.90
2017-09-13T10:02:02.885Z,99.90
2017-09-13T10:04:31.899Z,99.90
2017-09-13T10:07:00.125Z,99.90
2017-09-13T10:09:28.389Z,99.90
2017-09-13T10:11:56.620Z,99.90
2017-09-13T10:14:24.871Z,99.90
2017-09-13T10:16:53.096Z,99.90
2017-09-13T10:19:21.365Z,99.90
2017-09-13T10:21:49.622Z,99.90
2017-09-13T10:24:18.621Z,99.90
2017-09-13T10:26:46.855Z,99.90
2017-09-13T10:29:15.088Z,99.90
2017-09-13T10:31:43.324Z,99.90
2017-09-13T10:34:11.569Z,99.90
2017-09-13T10:36:39.796Z,99.90
2017-09-13T10:39:08.061Z,99.90
2017-09-13T10:41:37.058Z,99.90
2017-09-13T10:44:06.079Z,99.90
2017-09-13T10:46:34.295Z,99.90
2017-09-13T10:49:02.557Z,99.90
2017-09-13T10:51:30.774Z,99.90
2017-09-13T10:53:59.789Z,99.90
2017-09-13T10:56:28.019Z,99.90
2017-09-13T10:58:56.241Z,99.90
2017-09-13T11:01:24.485Z,99.90
2017-09-13T11:03:53.486Z,99.90
2017-09-13T11:06:22.498Z,99.90
2017-09-13T11:08:50.722Z,99.90
2017-09-13T11:11:18.977Z,99.90
2017-09-13T11:13:47.196Z,99.90
2017-09-13T11:16:16.221Z,99.90
2017-09-13T11:18:44.457Z,99.90
2017-09-13T11:21:12.706Z,99.90
2017-09-13T11:23:40.935Z,99.90
2017-09-13T11:26:09.956Z,99.90
2017-09-13T11:28:38.286Z,99.90
2017-09-13T11:31:06.529Z,99.90
2017-09-13T11:33:34.758Z,99.90
2017-09-13T11:36:03.769Z,99.90
2017-09-13T11:38:31.999Z,99.90
2017-09-13T11:41:00.241Z,99.90
2017-09-13T11:43:28.470Z,99.90
2017-09-13T11:45:57.483Z,99.90
2017-09-13T11:48:25.715Z,99.90
2017-09-13T11:50:53.965Z,99.00
2017-09-13T11:53:22.256Z,97.70
2017-09-13T11:55:50.505Z,96.20
2017-09-13T11:58:18.790Z,95.90
2017-09-13T12:00:47.004Z,94.90
2017-09-13T12:03:15.229Z,94.50
2017-09-13T12:05:43.477Z,95.30
2017-09-13T12:08:11.710Z,94.70
2017-09-13T12:10:39.965Z,93.50
2017-09-13T12:13:08.192Z,93.20
2017-09-13T12:15:37.201Z,92.40
2017-09-13T12:18:05.452Z,92.40
2017-09-13T12:20:34.441Z,92.20
2017-09-13T12:23:02.685Z,92.20
2017-09-13T12:25:30.912Z,90.90
2017-09-13T12:27:59.934Z,89.60
2017-09-13T12:30:28.168Z,89.60
2017-09-13T12:32:57.569Z,83.70
2017-09-13T12:35:26.573Z,84.00
2017-09-13T12:37:55.588Z,83.00
2017-09-13T12:40:23.825Z,82.90
2017-09-13T12:42:52.069Z,82.30
2017-09-13T12:45:20.301Z,82.70
2017-09-13T12:47:48.544Z,80.30
2017-09-13T12:50:16.813Z,79.80
2017-09-13T12:52:45.064Z,80.40
2017-09-13T12:55:13.295Z,79.70
2017-09-13T12:57:42.311Z,80.10
2017-09-13T13:00:10.550Z,80.00
2017-09-13T13:02:38.793Z,78.40
2017-09-13T13:05:07.012Z,78.50
2017-09-13T13:07:36.029Z,76.20
2017-09-13T13:10:04.273Z,76.00
2017-09-13T13:12:32.529Z,75.90
2017-09-13T13:15:00.752Z,77.10
2017-09-13T13:17:29.004Z,76.50
2017-09-13T13:19:57.996Z,75.20
2017-09-13T13:22:27.009Z,73.00
2017-09-13T13:24:55.233Z,73.00
2017-09-13T13:27:23.464Z,73.60
2017-09-13T13:29:51.704Z,73.00
2017-09-13T13:32:19.937Z,73.10
2017-09-13T13:34:48.185Z,73.30
2017-09-13T13:37:16.529Z,73.10
2017-09-13T13:39:44.756Z,72.80
2017-09-13T13:42:12.982Z,74.20
2017-09-13T13:44:41.225Z,74.60
2017-09-13T13:47:09.467Z,73.60
2017-09-13T13:49:37.788Z,73.40
2017-09-13T13:52:06.044Z,74.20
2017-09-13T13:54:34.296Z,73.80
2017-09-13T13:57:02.530Z,74.30
2017-09-13T13:59:30.809Z,76.40
2017-09-13T14:01:59.018Z,75.50
2017-09-13T14:04:28.029Z,75.00
2017-09-13T14:06:56.261Z,74.90
2017-09-13T14:09:24.513Z,74.30
2017-09-13T14:11:52.736Z,74.40
2017-09-13T14:14:21.001Z,73.00
2017-09-13T14:16:49.996Z,71.10
2017-09-13T14:19:19.034Z,68.70
2017-09-13T14:21:47.236Z,68.60
2017-09-13T14:24:15.484Z,64.30
2017-09-13T14:26:43.721Z,63.00
2017-09-13T14:29:11.968Z,59.50
2017-09-13T14:31:40.194Z,58.40
2017-09-13T14:34:08.456Z,58.80
2017-09-13T14:36:36.681Z,58.10
2017-09-13T14:39:04.939Z,57.20
2017-09-13T14:41:33.183Z,58.00
2017-09-13T14:44:01.410Z,55.50
2017-09-13T14:46:29.662Z,55.90
2017-09-13T14:48:57.897Z,56.60
2017-09-13T14:51:26.904Z,56.70
2017-09-13T14:53:55.145Z,56.70
2017-09-13T14:56:23.405Z,56.10
2017-09-13T14:58:51.667Z,56.00
2017-09-13T15:01:19.894Z,55.80
2017-09-13T15:03:48.889Z,57.00
2017-09-13T15:06:17.893Z,57.10
2017-09-13T15:08:46.116Z,57.10
2017-09-13T15:11:14.364Z,57.90
2017-09-13T15:13:42.588Z,58.80
2017-09-13T15:16:10.832Z,58.30
2017-09-13T15:18:39.061Z,58.60
2017-09-13T15:21:07.314Z,60.00
2017-09-13T15:23:35.531Z,59.70
2017-09-13T15:26:03.772Z,60.80
2017-09-13T15:28:32.760Z,61.90
2017-09-13T15:31:01.777Z,62.60
2017-09-13T15:33:30.771Z,64.30
2017-09-13T15:35:59.776Z,64.70
2017-09-13T15:38:28.005Z,64.80
2017-09-13T15:40:56.252Z,67.70
2017-09-13T15:43:24.490Z,68.90
2017-09-13T15:45:52.730Z,69.90
2017-09-13T15:48:20.957Z,71.70
2017-09-13T15:50:49.173Z,71.80
2017-09-13T15:53:17.420Z,73.20
2017-09-13T15:55:45.644Z,77.30
2017-09-13T15:58:14.661Z,84.20
2017-09-13T16:00:42.902Z,84.20
2017-09-13T16:03:11.142Z,87.30
2017-09-13T16:05:39.363Z,89.40
2017-09-13T16:08:08.375Z,90.70
2017-09-13T16:10:37.406Z,90.40
2017-09-13T16:13:06.375Z,90.40
2017-09-13T16:15:34.602Z,90.40
2017-09-13T16:18:02.848Z,90.60
2017-09-13T16:20:31.077Z,91.20
2017-09-13T16:23:00.085Z,91.40
2017-09-13T16:25:28.314Z,91.40
2017-09-13T16:27:56.548Z,91.70
2017-09-13T16:30:24.775Z,91.80
2017-09-13T16:32:53.013Z,92.10
2017-09-13T16:35:21.257Z,92.50
2017-09-13T16:37:49.508Z,92.80
2017-09-13T16:40:17.737Z,93.20
2017-09-13T16:42:45.977Z,93.40
2017-09-13T16:45:14.969Z,93.90
2017-09-13T16:47:43.971Z,93.90
2017-09-13T16:50:12.208Z,93.90
2017-09-13T16:52:40.452Z,93.90
2017-09-13T16:55:08.678Z,93.90
2017-09-13T16:57:37.671Z,93.70
2017-09-13T17:00:06.684Z,93.40
2017-09-13T17:02:35.672Z,93.10
2017-09-13T17:05:04.690Z,93.30
2017-09-13T17:07:32.933Z,93.30
2017-09-13T17:10:01.937Z,92.90
2017-09-13T17:12:30.936Z,93.20
2017-09-13T17:14:59.169Z,93.10
2017-09-13T17:17:27.395Z,92.80
2017-09-13T17:19:55.648Z,92.80
2017-09-13T17:22:24.654Z,93.10
2017-09-13T17:24:52.897Z,93.10
2017-09-13T17:27:21.132Z,92.90
2017-09-13T17:29:49.380Z,92.10
2017-09-13T17:32:17.606Z,92.30
2017-09-13T17:34:46.614Z,91.80
2017-09-13T17:37:14.850Z,91.90
2017-09-13T17:39:43.089Z,91.60
2017-09-13T17:42:12.086Z,91.20
2017-09-13T17:44:41.111Z,91.40
2017-09-13T17:47:09.336Z,91.40
2017-09-13T17:49:37.585Z,91.90
2017-09-13T17:52:05.822Z,92.80
2017-09-13T17:54:34.064Z,93.30
2017-09-13T17:57:03.067Z,94.30
2017-09-13T17:59:32.077Z,94.90
2017-09-13T18:02:00.301Z,94.90
2017-09-13T18:04:28.548Z,94.90
2017-09-13T18:06:56.781Z,95.40
2017-09-13T18:09:25.803Z,95.60
2017-09-13T18:11:54.033Z,95.60
2017-09-13T18:14:22.260Z,96.10
2017-09-13T18:16:50.505Z,96.30
2017-09-13T18:19:19.494Z,96.40
2017-09-13T18:21:47.736Z,96.40
2017-09-13T18:24:15.962Z,96.70
2017-09-13T18:26:44.245Z,96.80
2017-09-13T18:29:12.474Z,96.80
2017-09-13T18:31:40.725Z,97.00
2017-09-13T18:34:08.953Z,96.90
2017-09-13T18:36:37.956Z,97.30
2017-09-13T18:39:06.183Z,97.30
2017-09-13T18:41:34.435Z,97.50
2017-09-13T18:44:03.575Z,97.70
2017-09-13T18:46:31.825Z,97.70
2017-09-13T18:49:00.059Z,97.50
2017-09-13T18:51:28.301Z,97.70
2017-09-13T18:53:56.540Z,97.80
2017-09-13T18:56:24.789Z,97.70
2017-09-13T18:58:53.017Z,98.00
2017-09-13T19:01:21.266Z,98.00
2017-09-13T19:03:49.493Z,97.80
2017-09-13T19:06:18.500Z,97.90
2017-09-13T19:08:46.760Z,97.90
2017-09-13T19:11:15.768Z,97.90
2017-09-13T19:13:44.002Z,97.90
2017-09-13T19:16:12.277Z,97.90
2017-09-13T19:18:40.521Z,97.80
2017-09-13T19:21:08.752Z,97.70
2017-09-13T19:23:36.992Z,97.90
2017-09-13T19:26:05.224Z,97.70
2017-09-13T19:28:33.471Z,98.00
2017-09-13T19:31:02.468Z,98.00
2017-09-13T19:33:30.718Z,98.00
2017-09-13T19:35:58.945Z,98.00
2017-09-13T19:38:27.203Z,97.80
2017-09-13T19:40:56.243Z,97.70
2017-09-13T19:43:24.498Z,97.60
2017-09-13T19:45:52.736Z,97.90
2017-09-13T19:48:20.976Z,98.10
2017-09-13T19:50:49.236Z,98.20
2017-09-13T19:53:17.480Z,97.90
2017-09-13T19:55:46.481Z,98.00
2017-09-13T19:58:14.726Z,97.90
2017-09-13T20:00:42.969Z,98.20
2017-09-13T20:03:11.247Z,98.20
2017-09-13T20:05:39.478Z,98.40
2017-09-13T20:08:08.514Z,98.60
2017-09-13T20:10:36.749Z,98.60
2017-09-13T20:13:05.757Z,98.70
2017-09-13T20:15:33.998Z,98.70
2017-09-13T20:18:02.253Z,98.90
2017-09-13T20:20:30.489Z,99.10
2017-09-13T20:22:58.744Z,99.10
2017-09-13T20:25:27.747Z,99.50
2017-09-13T20:27:56.009Z,99.50
2017-09-13T20:30:25.013Z,99.70
2017-09-13T20:32:53.240Z,99.60
2017-09-13T20:35:21.504Z,99.60
2017-09-13T20:37:49.724Z,99.70
2017-09-13T20:40:18.741Z,99.80
2017-09-13T20:42:46.978Z,99.70
2017-09-13T20:45:15.221Z,99.80
2017-09-13T20:47:43.460Z,99.80
2017-09-13T20:50:11.801Z,99.80
2017-09-13T20:52:40.037Z,99.90
2017-09-13T20:55:08.288Z,99.90
2017-09-13T20:57:36.530Z,99.90
2017-09-13T21:00:04.782Z,99.90
2017-09-13T21:02:33.021Z,99.90
2017-09-13T21:05:01.268Z,99.90
2017-09-13T21:07:30.268Z,99.90
2017-09-13T21:09:58.517Z,99.90
2017-09-13T21:12:26.754Z,99.90
2017-09-13T21:14:55.001Z,99.90
2017-09-13T21:17:23.997Z,99.90
2017-09-13T21:19:53.007Z,99.90
2017-09-13T21:22:21.251Z,99.90
2017-09-13T21:24:49.481Z,99.90
2017-09-13T21:27:17.726Z,99.90
2017-09-13T21:29:45.977Z,99.90
2017-09-13T21:32:14.977Z,99.90
2017-09-13T21:34:43.997Z,99.90
2017-09-13T21:37:12.234Z,99.90
2017-09-13T21:39:40.502Z,99.90
2017-09-13T21:42:08.737Z,99.90
2017-09-13T21:44:36.966Z,99.90
2017-09-13T21:47:05.976Z,99.90
2017-09-13T21:49:34.214Z,99.90
2017-09-13T21:52:02.452Z,99.90
2017-09-13T21:54:30.691Z,99.90
2017-09-13T21:56:59.712Z,99.90
2017-09-13T21:59:27.931Z,99.90
2017-09-13T22:01:56.176Z,99.90
2017-09-13T22:04:24.413Z,99.90
2017-09-13T22:06:53.425Z,99.90
2017-09-13T22:09:21.654Z,99.90
2017-09-13T22:11:49.907Z,99.90
2017-09-13T22:14:18.138Z,99.90
2017-09-13T22:16:47.149Z,99.90
2017-09-13T22:19:15.388Z,99.90
2017-09-13T22:21:43.650Z,99.90
2017-09-13T22:24:11.877Z,99.90
2017-09-13T22:26:40.132Z,99.90
2017-09-13T22:29:09.140Z,99.90
2017-09-13T22:31:38.097Z,99.90
2017-09-13T22:34:06.334Z,99.90
2017-09-13T22:36:34.576Z,99.90
2017-09-13T22:39:02.819Z,99.90
2017-09-13T22:41:31.077Z,99.90
2017-09-13T22:43:59.301Z,99.90
2017-09-13T22:46:27.548Z,99.90
2017-09-13T22:48:55.792Z,99.90
2017-09-13T22:51:24.039Z,99.90
2017-09-13T22:53:53.120Z,99.90
2017-09-13T22:56:21.362Z,99.90
2017-09-13T22:58:49.614Z,99.90
2017-09-13T23:01:17.841Z,99.90
2017-09-13T23:03:46.856Z,99.90
2017-09-13T23:06:15.081Z,99.90
2017-09-13T23:08:43.333Z,99.90
2017-09-13T23:11:11.557Z,99.90
2017-09-13T23:13:40.569Z,99.90
2017-09-13T23:16:08.804Z,99.90
2017-09-13T23:18:37.055Z,99.90
2017-09-13T23:21:05.290Z,99.90
2017-09-13T23:23:34.299Z,99.90
2017-09-13T23:26:02.537Z,99.90
2017-09-13T23:28:31.553Z,99.90
2017-09-13T23:30:59.785Z,99.90
2017-09-13T23:33:28.033Z,99.90
2017-09-13T23:35:56.257Z,99.90
2017-09-13T23:38:25.268Z,99.90
2017-09-13T23:40:53.510Z,99.90
2017-09-13T23:43:21.754Z,99.90
2017-09-13T23:45:49.988Z,99.90
2017-09-13T23:48:19.004Z,99.90
2017-09-13T23:50:47.233Z,99.90
2017-09-13T23:53:15.478Z,99.90
2017-09-13T23:55:43.713Z,99.90
2017-09-13T23:58:11.965Z,99.90
